Madeline — WDE3220 — position and weather

sailwx.info

Track history (hours):
 
Tides and Currents Weather Stations Pressure Air Temp Water Temp Dewpoint Dewpoint Depression Visibility Wind Speed Wind Dir Waves Ship Positions

Madeline

Owner: TUG MADELINE, LLC, NEW CASTLE, DE. More information available from US FCC via Universal Licensing System and Coast Guard Vessel Documentation Center.

Last reported at 2017-Jan-24 12:31 UTC. Time now 2017-Jan-24 19:28 UTC.
Position N 39°03' W 075°14'.

; draft 4.6 m.

Type: Tug. MMSI: 367335830.

Date/timePositionNaut miles runAvg speedWind from/ knotsBaromVisibWave heightAir tempDewpointWater temp
2017-Jan-24 12:31N 39°03' W 075°14'1010.3
2017-Jan-24 11:34N 39°13' W 075°17'1111.1
2017-Jan-24 10:33N 39°21' W 075°26'1110.7
2017-Jan-24 09:34N 39°31' W 075°33'1212.0
2017-Jan-24 08:34N 39°42' W 075°31'1 0.9
2017-Jan-24 07:33N 39°43' W 075°31'0 0.0
2017-Jan-24 06:33N 39°43' W 075°31'0 0.0
2017-Jan-24 05:33N 39°43' W 075°31'0 0.0
2017-Jan-24 04:33N 39°43' W 075°31'0 0.0
2017-Jan-24 03:33N 39°43' W 075°31'1 1.2
2017-Jan-24 02:33N 39°44' W 075°30'1110.7
2017-Jan-24 01:33N 39°51' W 075°20'7 7.0
2017-Jan-24 00:33N 39°53' W 075°11'0 0.0
2017-Jan-23 23:33N 39°53' W 075°11'0 0.0
2017-Jan-23 22:33N 39°53' W 075°11'0 0.0
2017-Jan-23 21:33N 39°53' W 075°11'0 0.0
2017-Jan-23 20:33N 39°53' W 075°11'3 2.6
2017-Jan-23 19:33N 39°54' W 075°08'0 0.1
2017-Jan-23 18:33N 39°54' W 075°08'0 0.4
2017-Jan-23 17:33N 39°54' W 075°08'0 0.0
2017-Jan-23 16:33N 39°54' W 075°08'0 0.0
2017-Jan-23 15:33N 39°54' W 075°08'0 0.0
2017-Jan-23 14:33N 39°54' W 075°08'0 0.0
2017-Jan-23 13:33N 39°54' W 075°08'0 0.0
2017-Jan-23 12:33N 39°54' W 075°08'1 1.3
2017-Jan-23 11:34N 39°53' W 075°09'0 0.5
2017-Jan-23 10:34N 39°53' W 075°10'1 0.9
2017-Jan-23 09:33N 39°53' W 075°11'0 0.0
2017-Jan-23 08:33N 39°53' W 075°11'0 0.0
2017-Jan-23 07:33N 39°53' W 075°11'0 0.0
2017-Jan-23 06:33N 39°53' W 075°11'0 0.0
2017-Jan-23 05:33N 39°53' W 075°11'0 0.0
2017-Jan-23 04:33N 39°53' W 075°11'0 0.0
2017-Jan-23 03:33N 39°53' W 075°11'0 0.0
2017-Jan-23 02:33N 39°53' W 075°11'0 0.0
2017-Jan-23 01:33N 39°53' W 075°11'0 0.0
2017-Jan-23 00:33N 39°53' W 075°11'0 0.0
2017-Jan-22 23:33N 39°53' W 075°11'2 1.8
2017-Jan-22 22:33N 39°52' W 075°13'0 0.1
2017-Jan-22 21:33N 39°52' W 075°13'4 4.4
2017-Jan-22 20:33N 39°51' W 075°19'6 6.2
2017-Jan-22 19:33N 39°48' W 075°26'0 0.0
2017-Jan-22 18:33N 39°48' W 075°26'0 0.0
2017-Jan-22 17:33N 39°48' W 075°26'0 0.0
2017-Jan-22 16:33N 39°48' W 075°26'0 0.0
2017-Jan-22 15:33N 39°48' W 075°26'0 0.0
2017-Jan-22 14:33N 39°48' W 075°26'0 0.0
2017-Jan-22 13:33N 39°48' W 075°26'0 0.0
2017-Jan-22 12:33N 39°48' W 075°26'0 0.0
2017-Jan-22 11:33N 39°48' W 075°26'0 0.1
2017-Jan-22 10:33N 39°48' W 075°26'1 0.8
2017-Jan-22 09:33N 39°48' W 075°25'8 7.5
2017-Jan-22 08:33N 39°51' W 075°16'0 0.0
2017-Jan-22 07:33N 39°51' W 075°16'0 0.0
2017-Jan-22 06:33N 39°51' W 075°16'0 0.0
2017-Jan-22 05:33N 39°51' W 075°16'0 0.0
2017-Jan-22 04:33N 39°51' W 075°16'0 0.0
2017-Jan-22 03:33N 39°51' W 075°16'0 0.0
2017-Jan-22 02:33N 39°51' W 075°16'0 0.0
2017-Jan-22 01:33N 39°51' W 075°16'0 0.0
2017-Jan-22 00:33N 39°51' W 075°16'0 0.0
2017-Jan-21 23:34N 39°51' W 075°16'0 0.0
2017-Jan-21 22:33N 39°51' W 075°16'0 0.0
2017-Jan-21 21:33N 39°51' W 075°16'0 0.0
2017-Jan-21 20:33N 39°51' W 075°16'0 0.0
2017-Jan-21 19:33N 39°51' W 075°16'1 1.5
2017-Jan-21 18:33N 39°51' W 075°14'3 2.7
2017-Jan-21 17:33N 39°54' W 075°12'1 0.9
2017-Jan-21 16:33N 39°53' W 075°11'0 0.0
2017-Jan-21 15:33N 39°53' W 075°11'0 0.0
2017-Jan-21 14:33N 39°53' W 075°11'0 0.0
2017-Jan-21 13:33N 39°53' W 075°11'0 0.0
2017-Jan-21 12:33N 39°53' W 075°11'0 0.0
2017-Jan-21 11:33N 39°53' W 075°11'0 0.0
2017-Jan-21 10:33N 39°53' W 075°11'0 0.0
2017-Jan-21 09:33N 39°53' W 075°11'2 2.2
2017-Jan-21 08:33N 39°52' W 075°13'2 2.0
2017-Jan-21 07:33N 39°51' W 075°16'7 6.6
2017-Jan-21 06:33N 39°54' W 075°08'2 2.5
2017-Jan-21 05:33N 39°53' W 075°11'0 0.1
2017-Jan-21 04:33N 39°53' W 075°11'0 0.0
2017-Jan-21 03:33N 39°53' W 075°11'0 0.0
2017-Jan-21 02:33N 39°53' W 075°11'0 0.0
2017-Jan-21 01:33N 39°53' W 075°11'0 0.0
2017-Jan-21 00:33N 39°53' W 075°11'0 0.0
2017-Jan-20 23:33N 39°53' W 075°11'0 0.0
2017-Jan-20 22:33N 39°53' W 075°11'0 0.0
2017-Jan-20 21:33N 39°53' W 075°11'0 0.0
2017-Jan-20 20:33N 39°53' W 075°11'0 0.0
2017-Jan-20 19:33N 39°53' W 075°11'0 0.0
2017-Jan-20 18:33N 39°53' W 075°11'0 0.0
2017-Jan-20 17:33N 39°53' W 075°11'0 0.0
2017-Jan-20 16:33N 39°53' W 075°11'0 0.0
2017-Jan-20 15:33N 39°53' W 075°11'0 0.0
2017-Jan-20 14:33N 39°53' W 075°11'0 0.0
2017-Jan-20 13:33N 39°53' W 075°11'0 0.0
2017-Jan-20 12:33N 39°53' W 075°11'0 0.0
2017-Jan-20 11:33N 39°53' W 075°11'0 0.0
2017-Jan-20 10:33N 39°53' W 075°11'0 0.0
2017-Jan-20 09:33N 39°53' W 075°11'0 0.0
2017-Jan-20 08:33N 39°53' W 075°11'4 3.9
2017-Jan-20 07:33N 39°51' W 075°15'0 0.5
2017-Jan-20 06:33N 39°51' W 075°16'2 1.6
2017-Jan-20 05:33N 39°51' W 075°14'1 1.5
2017-Jan-20 04:33N 39°51' W 075°16'0 0.0
2017-Jan-20 03:33N 39°51' W 075°16'0 0.0
2017-Jan-20 02:33N 39°51' W 075°16'0 0.0
2017-Jan-20 01:33N 39°51' W 075°16'0 0.0
2017-Jan-20 00:33N 39°51' W 075°16'0 0.0
2017-Jan-19 23:33N 39°51' W 075°16'0 0.0
2017-Jan-19 22:33N 39°51' W 075°16'0 0.5
2017-Jan-19 21:33N 39°51' W 075°15'5 4.7
2017-Jan-19 20:33N 39°53' W 075°10'1 1.3
2017-Jan-19 19:33N 39°53' W 075°11'0 0.0
2017-Jan-19 18:33N 39°53' W 075°11'0 0.0
2017-Jan-19 17:33N 39°53' W 075°11'0 0.0
2017-Jan-19 16:33N 39°53' W 075°11'0 0.0
2017-Jan-19 15:33N 39°53' W 075°11'0 0.0
2017-Jan-19 14:33N 39°53' W 075°11'0 0.0
2017-Jan-19 13:33N 39°53' W 075°11'0 0.4
2017-Jan-19 12:33N 39°53' W 075°12'1 0.7
2017-Jan-19 11:33N 39°54' W 075°12'1 1.2
2017-Jan-19 10:33N 39°53' W 075°11'0 0.0
2017-Jan-19 09:33N 39°53' W 075°11'0 0.0
2017-Jan-19 08:33N 39°53' W 075°11'0 0.0
2017-Jan-19 07:33N 39°53' W 075°11'0 0.0
2017-Jan-19 06:33N 39°53' W 075°11'0 0.0
2017-Jan-19 05:33N 39°53' W 075°11'0 0.0
2017-Jan-19 04:33N 39°53' W 075°11'0 0.0
2017-Jan-19 03:33N 39°53' W 075°11'0 0.0
2017-Jan-19 02:33N 39°53' W 075°11'0 0.0
2017-Jan-19 01:33N 39°53' W 075°11'0 0.0
2017-Jan-19 00:33N 39°53' W 075°11'0 0.0
2017-Jan-18 23:33N 39°53' W 075°11'0 0.0
2017-Jan-18 22:33N 39°53' W 075°11'0 0.0
2017-Jan-18 21:33N 39°53' W 075°11'3 2.8
2017-Jan-18 20:33N 39°52' W 075°14'1 1.4
2017-Jan-18 19:33N 39°51' W 075°16'0 0.0
2017-Jan-18 18:33N 39°51' W 075°16'7 6.6
2017-Jan-18 17:33N 39°54' W 075°08'0 0.0
2017-Jan-18 16:33N 39°54' W 075°08'0 0.0
2017-Jan-18 15:33N 39°54' W 075°08'0 0.1
2017-Jan-18 14:33N 39°54' W 075°08'0 0.0
2017-Jan-18 13:33N 39°54' W 075°08'2 2.4
2017-Jan-18 12:33N 39°53' W 075°11'0 0.0
2017-Jan-18 11:33N 39°53' W 075°11'0 0.0
2017-Jan-18 10:33N 39°53' W 075°11'0 0.0
2017-Jan-18 09:33N 39°53' W 075°11'0 0.0
2017-Jan-18 08:33N 39°53' W 075°11'0 0.0
2017-Jan-18 07:33N 39°53' W 075°11'0 0.0
2017-Jan-18 06:33N 39°53' W 075°11'0 0.0
2017-Jan-18 05:33N 39°53' W 075°11'0 0.0
2017-Jan-18 04:33N 39°53' W 075°11'0 0.0
2017-Jan-18 03:33N 39°53' W 075°11'0 0.0
2017-Jan-18 02:33N 39°53' W 075°11'0 0.0
2017-Jan-18 01:33N 39°53' W 075°11'4 3.6
2017-Jan-18 00:33N 39°51' W 075°15'0 0.0
2017-Jan-17 23:34N 39°51' W 075°15'0 0.1
2017-Jan-17 22:33N 39°51' W 075°15'1 0.6
2017-Jan-17 21:33N 39°51' W 075°16'0 0.0
2017-Jan-17 20:34N 39°51' W 075°16'0 0.0
2017-Jan-17 19:33N 39°51' W 075°16'0 0.0
2017-Jan-17 18:33N 39°51' W 075°16'0 0.0
2017-Jan-17 17:33N 39°51' W 075°16'0 0.0
2017-Jan-17 16:33N 39°51' W 075°16'6 5.7
2017-Jan-17 15:33N 39°53' W 075°09'8 8.3
2017-Jan-17 14:34N 40°00' W 075°03'9 9.0
2017-Jan-17 13:33N 40°05' W 074°53'5 1.5
2017-Jan-17 10:18N 40°07' W 074°48'5 7.1
2017-Jan-17 09:33N 40°04' W 074°54'9 8.6
2017-Jan-17 08:33N 39°60' W 075°04'9 8.7
2017-Jan-17 07:33N 39°53' W 075°10'1 0.7
2017-Jan-17 06:34N 39°53' W 075°11'0 0.0
2017-Jan-17 05:34N 39°53' W 075°11'0 0.0
2017-Jan-17 04:34N 39°53' W 075°11'0 0.0
2017-Jan-17 03:33N 39°53' W 075°11'0 0.0
2017-Jan-17 02:33N 39°53' W 075°11'0 0.0
2017-Jan-17 01:33N 39°53' W 075°11'0 0.0
2017-Jan-17 00:34N 39°53' W 075°11'0 0.0
2017-Jan-16 23:33N 39°53' W 075°11'0 0.0
2017-Jan-16 22:33N 39°53' W 075°11'0 0.0
2017-Jan-16 21:34N 39°53' W 075°11'0 0.0
2017-Jan-16 20:33N 39°53' W 075°11'0 0.0
2017-Jan-16 19:33N 39°53' W 075°11'1 1.2
2017-Jan-16 18:33N 39°53' W 075°10'2 2.2
2017-Jan-16 17:33N 39°52' W 075°12'1 1.2
2017-Jan-16 16:34N 39°53' W 075°11'0 0.0
2017-Jan-16 15:33N 39°53' W 075°11'0 0.0
2017-Jan-16 14:33N 39°53' W 075°11'0 0.0
2017-Jan-16 13:33N 39°53' W 075°11'3 3.0
2017-Jan-16 12:33N 39°51' W 075°14'2 1.6
2017-Jan-16 11:33N 39°51' W 075°16'0 0.4
2017-Jan-16 10:33N 39°51' W 075°17'1 0.5
2017-Jan-16 09:33N 39°51' W 075°16'0 0.3
2017-Jan-16 08:33N 39°51' W 075°16'0 0.0
2017-Jan-16 07:33N 39°51' W 075°16'1 1.5
2017-Jan-16 06:34N 39°51' W 075°14'3 2.8
2017-Jan-16 05:34N 39°53' W 075°11'0 0.0
2017-Jan-16 04:33N 39°53' W 075°11'0 0.0
2017-Jan-16 03:33N 39°53' W 075°11'0 0.0
2017-Jan-16 02:33N 39°53' W 075°11'0 0.0
2017-Jan-16 01:33N 39°53' W 075°11'0 0.0
2017-Jan-16 00:33N 39°53' W 075°11'0 0.0
2017-Jan-15 23:34N 39°53' W 075°11'0 0.0
2017-Jan-15 22:34N 39°53' W 075°11'0 0.0
2017-Jan-15 21:33N 39°53' W 075°11'0 0.0
2017-Jan-15 20:33N 39°53' W 075°11'0 0.0
2017-Jan-15 19:33N 39°53' W 075°11'6 6.3
2017-Jan-15 18:33N 39°51' W 075°19'5 4.9
2017-Jan-15 17:33N 39°49' W 075°24'0 0.2
2017-Jan-15 16:34N 39°49' W 075°24'0 0.2
2017-Jan-15 15:33N 39°49' W 075°24'0 0.1
2017-Jan-15 14:33N 39°49' W 075°24'2 1.9
2017-Jan-15 13:34N 39°48' W 075°26'6 5.8
2017-Jan-15 12:34N 39°43' W 075°31'0 0.0
2017-Jan-15 11:33N 39°43' W 075°31'0 0.0
2017-Jan-15 10:33N 39°43' W 075°31'0 0.0
2017-Jan-15 09:34N 39°43' W 075°31'0 0.0
2017-Jan-15 08:33N 39°43' W 075°31'0 0.0
2017-Jan-15 07:33N 39°43' W 075°31'0 0.0
2017-Jan-15 06:33N 39°43' W 075°31'0 0.0
2017-Jan-15 05:33N 39°43' W 075°31'0 0.0
2017-Jan-15 04:33N 39°43' W 075°31'0 0.0
2017-Jan-15 03:33N 39°43' W 075°31'0 0.0
2017-Jan-15 02:33N 39°43' W 075°31'0 0.0
2017-Jan-15 01:33N 39°43' W 075°31'0 0.0
2017-Jan-15 00:34N 39°43' W 075°31'0 0.0
2017-Jan-14 23:33N 39°43' W 075°31'0 0.0
2017-Jan-14 22:33N 39°43' W 075°31'0 0.0
2017-Jan-14 21:33N 39°43' W 075°31'6 5.7
2017-Jan-14 20:34N 39°38' W 075°35'3 3.2
2017-Jan-14 19:33N 39°35' W 075°35'2 1.9
2017-Jan-14 18:33N 39°34' W 075°33'6 6.1
2017-Jan-14 17:33N 39°40' W 075°32'3 3.1
2017-Jan-14 16:34N 39°43' W 075°31'0 0.0
2017-Jan-14 15:33N 39°43' W 075°31'0 0.0
2017-Jan-14 14:33N 39°43' W 075°31'0 0.0
2017-Jan-14 13:33N 39°43' W 075°31'0 0.0
2017-Jan-14 12:33N 39°43' W 075°31'  
Track history (hours):
 
Tides and Currents Weather Stations Pressure Air Temp Water Temp Dewpoint Dewpoint Depression Visibility Wind Speed Wind Dir Waves Ship Positions

Madeline

Owner: TUG MADELINE, LLC, NEW CASTLE, DE. More information available from US FCC via Universal Licensing System and Coast Guard Vessel Documentation Center.

Last reported at 2017-Jan-24 12:31 UTC. Time now 2017-Jan-24 19:28 UTC.
Position N 39°03' W 075°14'.

; draft 4.6 m.

Type: Tug. MMSI: 367335830.

Date/timePositionNaut miles runAvg speedWind from/ knotsBaromVisibWave heightAir tempDewpointWater temp
2017-Jan-24 12:31N 39°03' W 075°14'1010.3
2017-Jan-24 11:34N 39°13' W 075°17'1111.1
2017-Jan-24 10:33N 39°21' W 075°26'1110.7
2017-Jan-24 09:34N 39°31' W 075°33'1212.0
2017-Jan-24 08:34N 39°42' W 075°31'1 0.9
2017-Jan-24 07:33N 39°43' W 075°31'0 0.0
2017-Jan-24 06:33N 39°43' W 075°31'0 0.0
2017-Jan-24 05:33N 39°43' W 075°31'0 0.0
2017-Jan-24 04:33N 39°43' W 075°31'0 0.0
2017-Jan-24 03:33N 39°43' W 075°31'1 1.2
2017-Jan-24 02:33N 39°44' W 075°30'1110.7
2017-Jan-24 01:33N 39°51' W 075°20'7 7.0
2017-Jan-24 00:33N 39°53' W 075°11'0 0.0
2017-Jan-23 23:33N 39°53' W 075°11'0 0.0
2017-Jan-23 22:33N 39°53' W 075°11'0 0.0
2017-Jan-23 21:33N 39°53' W 075°11'0 0.0
2017-Jan-23 20:33N 39°53' W 075°11'3 2.6
2017-Jan-23 19:33N 39°54' W 075°08'0 0.1
2017-Jan-23 18:33N 39°54' W 075°08'0 0.4
2017-Jan-23 17:33N 39°54' W 075°08'0 0.0
2017-Jan-23 16:33N 39°54' W 075°08'0 0.0
2017-Jan-23 15:33N 39°54' W 075°08'0 0.0
2017-Jan-23 14:33N 39°54' W 075°08'0 0.0
2017-Jan-23 13:33N 39°54' W 075°08'0 0.0
2017-Jan-23 12:33N 39°54' W 075°08'1 1.3
2017-Jan-23 11:34N 39°53' W 075°09'0 0.5
2017-Jan-23 10:34N 39°53' W 075°10'1 0.9
2017-Jan-23 09:33N 39°53' W 075°11'0 0.0
2017-Jan-23 08:33N 39°53' W 075°11'0 0.0
2017-Jan-23 07:33N 39°53' W 075°11'0 0.0
2017-Jan-23 06:33N 39°53' W 075°11'0 0.0
2017-Jan-23 05:33N 39°53' W 075°11'0 0.0
2017-Jan-23 04:33N 39°53' W 075°11'0 0.0
2017-Jan-23 03:33N 39°53' W 075°11'0 0.0
2017-Jan-23 02:33N 39°53' W 075°11'0 0.0
2017-Jan-23 01:33N 39°53' W 075°11'0 0.0
2017-Jan-23 00:33N 39°53' W 075°11'0 0.0
2017-Jan-22 23:33N 39°53' W 075°11'2 1.8
2017-Jan-22 22:33N 39°52' W 075°13'0 0.1
2017-Jan-22 21:33N 39°52' W 075°13'4 4.4
2017-Jan-22 20:33N 39°51' W 075°19'6 6.2
2017-Jan-22 19:33N 39°48' W 075°26'0 0.0
2017-Jan-22 18:33N 39°48' W 075°26'0 0.0
2017-Jan-22 17:33N 39°48' W 075°26'0 0.0
2017-Jan-22 16:33N 39°48' W 075°26'0 0.0
2017-Jan-22 15:33N 39°48' W 075°26'0 0.0
2017-Jan-22 14:33N 39°48' W 075°26'0 0.0
2017-Jan-22 13:33N 39°48' W 075°26'0 0.0
2017-Jan-22 12:33N 39°48' W 075°26'0 0.0
2017-Jan-22 11:33N 39°48' W 075°26'0 0.1
2017-Jan-22 10:33N 39°48' W 075°26'1 0.8
2017-Jan-22 09:33N 39°48' W 075°25'8 7.5
2017-Jan-22 08:33N 39°51' W 075°16'0 0.0
2017-Jan-22 07:33N 39°51' W 075°16'0 0.0
2017-Jan-22 06:33N 39°51' W 075°16'0 0.0
2017-Jan-22 05:33N 39°51' W 075°16'0 0.0
2017-Jan-22 04:33N 39°51' W 075°16'0 0.0
2017-Jan-22 03:33N 39°51' W 075°16'0 0.0
2017-Jan-22 02:33N 39°51' W 075°16'0 0.0
2017-Jan-22 01:33N 39°51' W 075°16'0 0.0
2017-Jan-22 00:33N 39°51' W 075°16'0 0.0
2017-Jan-21 23:34N 39°51' W 075°16'0 0.0
2017-Jan-21 22:33N 39°51' W 075°16'0 0.0
2017-Jan-21 21:33N 39°51' W 075°16'0 0.0
2017-Jan-21 20:33N 39°51' W 075°16'0 0.0
2017-Jan-21 19:33N 39°51' W 075°16'1 1.5
2017-Jan-21 18:33N 39°51' W 075°14'3 2.7
2017-Jan-21 17:33N 39°54' W 075°12'1 0.9
2017-Jan-21 16:33N 39°53' W 075°11'0 0.0
2017-Jan-21 15:33N 39°53' W 075°11'0 0.0
2017-Jan-21 14:33N 39°53' W 075°11'0 0.0
2017-Jan-21 13:33N 39°53' W 075°11'0 0.0
2017-Jan-21 12:33N 39°53' W 075°11'0 0.0
2017-Jan-21 11:33N 39°53' W 075°11'0 0.0
2017-Jan-21 10:33N 39°53' W 075°11'0 0.0
2017-Jan-21 09:33N 39°53' W 075°11'2 2.2
2017-Jan-21 08:33N 39°52' W 075°13'2 2.0
2017-Jan-21 07:33N 39°51' W 075°16'7 6.6
2017-Jan-21 06:33N 39°54' W 075°08'2 2.5
2017-Jan-21 05:33N 39°53' W 075°11'0 0.1
2017-Jan-21 04:33N 39°53' W 075°11'0 0.0
2017-Jan-21 03:33N 39°53' W 075°11'0 0.0
2017-Jan-21 02:33N 39°53' W 075°11'0 0.0
2017-Jan-21 01:33N 39°53' W 075°11'0 0.0
2017-Jan-21 00:33N 39°53' W 075°11'0 0.0
2017-Jan-20 23:33N 39°53' W 075°11'0 0.0
2017-Jan-20 22:33N 39°53' W 075°11'0 0.0
2017-Jan-20 21:33N 39°53' W 075°11'0 0.0
2017-Jan-20 20:33N 39°53' W 075°11'0 0.0
2017-Jan-20 19:33N 39°53' W 075°11'0 0.0
2017-Jan-20 18:33N 39°53' W 075°11'0 0.0
2017-Jan-20 17:33N 39°53' W 075°11'0 0.0
2017-Jan-20 16:33N 39°53' W 075°11'0 0.0
2017-Jan-20 15:33N 39°53' W 075°11'0 0.0
2017-Jan-20 14:33N 39°53' W 075°11'0 0.0
2017-Jan-20 13:33N 39°53' W 075°11'0 0.0
2017-Jan-20 12:33N 39°53' W 075°11'0 0.0
2017-Jan-20 11:33N 39°53' W 075°11'0 0.0
2017-Jan-20 10:33N 39°53' W 075°11'0 0.0
2017-Jan-20 09:33N 39°53' W 075°11'0 0.0
2017-Jan-20 08:33N 39°53' W 075°11'4 3.9
2017-Jan-20 07:33N 39°51' W 075°15'0 0.5
2017-Jan-20 06:33N 39°51' W 075°16'2 1.6
2017-Jan-20 05:33N 39°51' W 075°14'1 1.5
2017-Jan-20 04:33N 39°51' W 075°16'0 0.0
2017-Jan-20 03:33N 39°51' W 075°16'0 0.0
2017-Jan-20 02:33N 39°51' W 075°16'0 0.0
2017-Jan-20 01:33N 39°51' W 075°16'0 0.0
2017-Jan-20 00:33N 39°51' W 075°16'0 0.0
2017-Jan-19 23:33N 39°51' W 075°16'0 0.0
2017-Jan-19 22:33N 39°51' W 075°16'0 0.5
2017-Jan-19 21:33N 39°51' W 075°15'5 4.7
2017-Jan-19 20:33N 39°53' W 075°10'1 1.3
2017-Jan-19 19:33N 39°53' W 075°11'0 0.0
2017-Jan-19 18:33N 39°53' W 075°11'0 0.0
2017-Jan-19 17:33N 39°53' W 075°11'0 0.0
2017-Jan-19 16:33N 39°53' W 075°11'0 0.0
2017-Jan-19 15:33N 39°53' W 075°11'0 0.0
2017-Jan-19 14:33N 39°53' W 075°11'0 0.0
2017-Jan-19 13:33N 39°53' W 075°11'0 0.4
2017-Jan-19 12:33N 39°53' W 075°12'1 0.7
2017-Jan-19 11:33N 39°54' W 075°12'1 1.2
2017-Jan-19 10:33N 39°53' W 075°11'0 0.0
2017-Jan-19 09:33N 39°53' W 075°11'0 0.0
2017-Jan-19 08:33N 39°53' W 075°11'0 0.0
2017-Jan-19 07:33N 39°53' W 075°11'0 0.0
2017-Jan-19 06:33N 39°53' W 075°11'0 0.0
2017-Jan-19 05:33N 39°53' W 075°11'0 0.0
2017-Jan-19 04:33N 39°53' W 075°11'0 0.0
2017-Jan-19 03:33N 39°53' W 075°11'0 0.0
2017-Jan-19 02:33N 39°53' W 075°11'0 0.0
2017-Jan-19 01:33N 39°53' W 075°11'0 0.0
2017-Jan-19 00:33N 39°53' W 075°11'0 0.0
2017-Jan-18 23:33N 39°53' W 075°11'0 0.0
2017-Jan-18 22:33N 39°53' W 075°11'0 0.0
2017-Jan-18 21:33N 39°53' W 075°11'3 2.8
2017-Jan-18 20:33N 39°52' W 075°14'1 1.4
2017-Jan-18 19:33N 39°51' W 075°16'0 0.0
2017-Jan-18 18:33N 39°51' W 075°16'7 6.6
2017-Jan-18 17:33N 39°54' W 075°08'0 0.0
2017-Jan-18 16:33N 39°54' W 075°08'0 0.0
2017-Jan-18 15:33N 39°54' W 075°08'0 0.1
2017-Jan-18 14:33N 39°54' W 075°08'0 0.0
2017-Jan-18 13:33N 39°54' W 075°08'2 2.4
2017-Jan-18 12:33N 39°53' W 075°11'0 0.0
2017-Jan-18 11:33N 39°53' W 075°11'0 0.0
2017-Jan-18 10:33N 39°53' W 075°11'0 0.0
2017-Jan-18 09:33N 39°53' W 075°11'0 0.0
2017-Jan-18 08:33N 39°53' W 075°11'0 0.0
2017-Jan-18 07:33N 39°53' W 075°11'0 0.0
2017-Jan-18 06:33N 39°53' W 075°11'0 0.0
2017-Jan-18 05:33N 39°53' W 075°11'0 0.0
2017-Jan-18 04:33N 39°53' W 075°11'0 0.0
2017-Jan-18 03:33N 39°53' W 075°11'0 0.0
2017-Jan-18 02:33N 39°53' W 075°11'0 0.0
2017-Jan-18 01:33N 39°53' W 075°11'4 3.6
2017-Jan-18 00:33N 39°51' W 075°15'0 0.0
2017-Jan-17 23:34N 39°51' W 075°15'0 0.1
2017-Jan-17 22:33N 39°51' W 075°15'1 0.6
2017-Jan-17 21:33N 39°51' W 075°16'0 0.0
2017-Jan-17 20:34N 39°51' W 075°16'0 0.0
2017-Jan-17 19:33N 39°51' W 075°16'0 0.0
2017-Jan-17 18:33N 39°51' W 075°16'0 0.0
2017-Jan-17 17:33N 39°51' W 075°16'0 0.0
2017-Jan-17 16:33N 39°51' W 075°16'6 5.7
2017-Jan-17 15:33N 39°53' W 075°09'8 8.3
2017-Jan-17 14:34N 40°00' W 075°03'9 9.0
2017-Jan-17 13:33N 40°05' W 074°53'5 1.5
2017-Jan-17 10:18N 40°07' W 074°48'5 7.1
2017-Jan-17 09:33N 40°04' W 074°54'9 8.6
2017-Jan-17 08:33N 39°60' W 075°04'9 8.7
2017-Jan-17 07:33N 39°53' W 075°10'1 0.7
2017-Jan-17 06:34N 39°53' W 075°11'0 0.0
2017-Jan-17 05:34N 39°53' W 075°11'0 0.0
2017-Jan-17 04:34N 39°53' W 075°11'0 0.0
2017-Jan-17 03:33N 39°53' W 075°11'0 0.0
2017-Jan-17 02:33N 39°53' W 075°11'0 0.0
2017-Jan-17 01:33N 39°53' W 075°11'0 0.0
2017-Jan-17 00:34N 39°53' W 075°11'0 0.0
2017-Jan-16 23:33N 39°53' W 075°11'0 0.0
2017-Jan-16 22:33N 39°53' W 075°11'0 0.0
2017-Jan-16 21:34N 39°53' W 075°11'0 0.0
2017-Jan-16 20:33N 39°53' W 075°11'0 0.0
2017-Jan-16 19:33N 39°53' W 075°11'1 1.2
2017-Jan-16 18:33N 39°53' W 075°10'2 2.2
2017-Jan-16 17:33N 39°52' W 075°12'1 1.2
2017-Jan-16 16:34N 39°53' W 075°11'0 0.0
2017-Jan-16 15:33N 39°53' W 075°11'0 0.0
2017-Jan-16 14:33N 39°53' W 075°11'0 0.0
2017-Jan-16 13:33N 39°53' W 075°11'3 3.0
2017-Jan-16 12:33N 39°51' W 075°14'2 1.6
2017-Jan-16 11:33N 39°51' W 075°16'0 0.4
2017-Jan-16 10:33N 39°51' W 075°17'1 0.5
2017-Jan-16 09:33N 39°51' W 075°16'0 0.3
2017-Jan-16 08:33N 39°51' W 075°16'0 0.0
2017-Jan-16 07:33N 39°51' W 075°16'1 1.5
2017-Jan-16 06:34N 39°51' W 075°14'3 2.8
2017-Jan-16 05:34N 39°53' W 075°11'0 0.0
2017-Jan-16 04:33N 39°53' W 075°11'0 0.0
2017-Jan-16 03:33N 39°53' W 075°11'0 0.0
2017-Jan-16 02:33N 39°53' W 075°11'0 0.0
2017-Jan-16 01:33N 39°53' W 075°11'0 0.0
2017-Jan-16 00:33N 39°53' W 075°11'0 0.0
2017-Jan-15 23:34N 39°53' W 075°11'0 0.0
2017-Jan-15 22:34N 39°53' W 075°11'0 0.0
2017-Jan-15 21:33N 39°53' W 075°11'0 0.0
2017-Jan-15 20:33N 39°53' W 075°11'0 0.0
2017-Jan-15 19:33N 39°53' W 075°11'6 6.3
2017-Jan-15 18:33N 39°51' W 075°19'5 4.9
2017-Jan-15 17:33N 39°49' W 075°24'0 0.2
2017-Jan-15 16:34N 39°49' W 075°24'0 0.2
2017-Jan-15 15:33N 39°49' W 075°24'0 0.1
2017-Jan-15 14:33N 39°49' W 075°24'2 1.9
2017-Jan-15 13:34N 39°48' W 075°26'6 5.8
2017-Jan-15 12:34N 39°43' W 075°31'0 0.0
2017-Jan-15 11:33N 39°43' W 075°31'0 0.0
2017-Jan-15 10:33N 39°43' W 075°31'0 0.0
2017-Jan-15 09:34N 39°43' W 075°31'0 0.0
2017-Jan-15 08:33N 39°43' W 075°31'0 0.0
2017-Jan-15 07:33N 39°43' W 075°31'0 0.0
2017-Jan-15 06:33N 39°43' W 075°31'0 0.0
2017-Jan-15 05:33N 39°43' W 075°31'0 0.0
2017-Jan-15 04:33N 39°43' W 075°31'0 0.0
2017-Jan-15 03:33N 39°43' W 075°31'0 0.0
2017-Jan-15 02:33N 39°43' W 075°31'0 0.0
2017-Jan-15 01:33N 39°43' W 075°31'0 0.0
2017-Jan-15 00:34N 39°43' W 075°31'0 0.0
2017-Jan-14 23:33N 39°43' W 075°31'0 0.0
2017-Jan-14 22:33N 39°43' W 075°31'0 0.0
2017-Jan-14 21:33N 39°43' W 075°31'6 5.7
2017-Jan-14 20:34N 39°38' W 075°35'3 3.2
2017-Jan-14 19:33N 39°35' W 075°35'2 1.9
2017-Jan-14 18:33N 39°34' W 075°33'6 6.1
2017-Jan-14 17:33N 39°40' W 075°32'3 3.1
2017-Jan-14 16:34N 39°43' W 075°31'0 0.0
2017-Jan-14 15:33N 39°43' W 075°31'0 0.0
2017-Jan-14 14:33N 39°43' W 075°31'0 0.0
2017-Jan-14 13:33N 39°43' W 075°31'0 0.0
2017-Jan-14 12:33N 39°43' W 075°31'  

Dump ship's entire track history